Time,TemperatureF,DewpointF,PressureIn,WindDirection,WindDirectionDegrees,WindSpeedMPH,WindSpeedGustMPH,Humidity,HourlyPrecipIn,Conditions,Clouds,dailyrainin,SolarRadiationWatts/m^2,SoftwareType,DateUTC
2013-08-04 00:02:00,51.7,49.5,30.19,NW,312,0.0,0.0,92,0.00,CLR,,0.00,0.0,WeatherDisplay:10.37,2013-08-04 05:02:00,
2013-08-04 00:07:00,50.5,48.3,30.19,NW,312,0.0,0.0,92,0.00,CLR,,0.00,0.0,WeatherDisplay:10.37,2013-08-04 05:07:00,
2013-08-04 00:12:00,50.6,48.4,30.19,NW,313,0.0,0.0,92,0.00,CLR,,0.00,0.0,WeatherDisplay:10.37,2013-08-04 05:12:00,
2013-08-04 00:17:00,50.1,47.9,30.20,NW,313,0.0,0.0,92,0.00,CLR,,0.00,0.0,WeatherDisplay:10.37,2013-08-04 05:17:00,
2013-08-04 00:22:00,50.6,48.4,30.19,NW,313,0.0,0.0,92,0.00,CLR,,0.00,0.0,WeatherDisplay:10.37,2013-08-04 05:22:00,
2013-08-04 00:27:00,50.6,48.4,30.19,NW,313,0.0,0.0,92,0.00,CLR,,0.00,0.0,WeatherDisplay:10.37,2013-08-04 05:27:00,
2013-08-04 00:32:00,50.6,48.4,30.19,NW,313,0.0,0.0,92,0.00,CLR,,0.00,0.0,WeatherDisplay:10.37,2013-08-04 05:32:00,
2013-08-04 00:37:00,50.6,48.4,30.19,NW,313,0.0,0.0,92,0.00,CLR,,0.00,0.0,WeatherDisplay:10.37,2013-08-04 05:37:00,
2013-08-04 00:42:00,49.2,47.0,30.20,NW,312,0.0,0.0,92,0.00,CLR,,0.00,0.0,WeatherDisplay:10.37,2013-08-04 05:42:00,
2013-08-04 00:47:00,50.6,48.4,30.19,NW,313,0.0,0.0,92,0.00,CLR,,0.00,0.0,WeatherDisplay:10.37,2013-08-04 05:47:00,
2013-08-04 00:52:00,48.9,47.0,30.21,NW,312,0.0,0.0,93,0.00,CLR,,0.00,0.0,WeatherDisplay:10.37,2013-08-04 05:52:00,
2013-08-04 00:57:00,48.7,46.8,30.21,NW,313,0.0,0.0,93,0.00,CLR,,0.00,0.0,WeatherDisplay:10.37,2013-08-04 05:57:00,
2013-08-04 01:02:00,48.5,46.6,30.22,NW,313,0.0,0.0,93,0.00,CLR,,0.00,0.0,WeatherDisplay:10.37,2013-08-04 06:02:00,
2013-08-04 01:07:00,50.6,48.4,30.19,NW,313,0.0,0.0,92,0.00,CLR,,0.00,0.0,WeatherDisplay:10.37,2013-08-04 06:07:00,
2013-08-04 01:12:00,50.6,48.4,30.19,NW,313,0.0,0.0,92,0.00,CLR,,0.00,0.0,WeatherDisplay:10.37,2013-08-04 06:12:00,
2013-08-04 01:17:00,50.6,48.4,30.19,NW,313,0.0,0.0,92,0.00,CLR,,0.00,0.0,WeatherDisplay:10.37,2013-08-04 06:17:00,
2013-08-04 01:22:00,47.9,46.0,30.22,NW,313,0.0,0.0,93,0.00,CLR,,0.00,0.0,WeatherDisplay:10.37,2013-08-04 06:22:00,
2013-08-04 01:28:00,47.8,45.9,30.22,NW,312,0.0,0.0,93,0.00,CLR,,0.00,0.0,WeatherDisplay:10.37,2013-08-04 06:28:00,
2013-08-04 01:33:00,47.6,45.7,30.22,NW,313,0.0,0.0,93,0.00,CLR,,0.00,0.0,WeatherDisplay:10.37,2013-08-04 06:33:00,
2013-08-04 01:38:00,47.5,45.6,30.22,NW,313,0.0,0.0,93,0.00,CLR,,0.00,0.0,WeatherDisplay:10.37,2013-08-04 06:38:00,
2013-08-04 01:43:00,50.6,48.4,30.19,NW,313,0.0,0.0,92,0.00,CLR,,0.00,0.0,WeatherDisplay:10.37,2013-08-04 06:43:00,
2013-08-04 01:48:00,50.6,48.4,30.19,NW,313,0.0,0.0,92,0.00,CLR,,0.00,0.0,WeatherDisplay:10.37,2013-08-04 06:48:00,
2013-08-04 01:53:00,47.2,45.3,30.22,NW,313,0.0,0.0,93,0.00,CLR,,0.00,0.0,WeatherDisplay:10.37,2013-08-04 06:53:00,
2013-08-04 01:58:00,47.0,45.1,30.22,NW,313,0.0,0.0,93,0.00,CLR,,0.00,0.0,WeatherDisplay:10.37,2013-08-04 06:58:00,
2013-08-04 02:03:00,46.9,45.0,30.22,NW,313,0.0,0.0,93,0.00,CLR,,0.00,0.0,WeatherDisplay:10.37,2013-08-04 07:03:00,
2013-08-04 02:07:00,46.8,44.9,30.23,NW,312,0.0,0.0,93,0.00,CLR,,0.00,0.0,WeatherDisplay:10.37,2013-08-04 07:07:00,
2013-08-04 02:12:00,46.7,44.8,30.23,NW,313,0.0,0.0,93,0.00,CLR,,0.00,0.0,WeatherDisplay:10.37,2013-08-04 07:12:00,
2013-08-04 02:17:00,46.5,44.6,30.23,NW,313,0.0,0.0,93,0.00,CLR,,0.00,0.0,WeatherDisplay:10.37,2013-08-04 07:17:00,
2013-08-04 02:22:00,50.6,48.4,30.19,NW,313,0.0,0.0,92,0.00,CLR,,0.00,0.0,WeatherDisplay:10.37,2013-08-04 07:22:00,
2013-08-04 02:28:00,50.6,48.4,30.19,NW,313,0.0,0.0,92,0.00,CLR,,0.00,0.0,WeatherDisplay:10.37,2013-08-04 07:28:00,
2013-08-04 02:33:00,46.2,44.3,30.24,NW,313,0.0,0.0,93,0.00,CLR,,0.00,0.0,WeatherDisplay:10.37,2013-08-04 07:33:00,
2013-08-04 02:38:00,46.1,44.5,30.24,NW,312,0.0,0.0,94,0.00,CLR,,0.00,0.0,WeatherDisplay:10.37,2013-08-04 07:38:00,
2013-08-04 02:43:00,46.0,44.4,30.24,NW,312,0.0,0.0,94,0.00,CLR,,0.00,0.0,WeatherDisplay:10.37,2013-08-04 07:43:00,
2013-08-04 02:48:00,45.9,44.3,30.23,NW,312,0.0,0.0,94,0.00,FEW,,0.00,0.0,WeatherDisplay:10.37,2013-08-04 07:48:00,
2013-08-04 02:53:00,45.8,44.2,30.23,NW,313,0.0,0.0,94,0.00,FEW,,0.00,0.0,WeatherDisplay:10.37,2013-08-04 07:53:00,
2013-08-04 02:58:00,45.8,44.2,30.23,NW,313,0.0,0.0,94,0.00,FEW,,0.00,0.0,WeatherDisplay:10.37,2013-08-04 07:58:00,
2013-08-04 03:03:00,45.8,44.2,30.23,NW,313,0.0,0.0,94,0.00,FEW,,0.00,0.0,WeatherDisplay:10.37,2013-08-04 08:03:00,
2013-08-04 03:08:00,45.8,44.2,30.23,NW,313,0.0,0.0,94,0.00,FEW,,0.00,0.0,WeatherDisplay:10.37,2013-08-04 08:08:00,
2013-08-04 03:13:00,45.3,43.7,30.23,NW,313,0.0,0.0,94,0.00,FEW,,0.00,0.0,WeatherDisplay:10.37,2013-08-04 08:13:00,
2013-08-04 03:18:00,45.2,43.6,30.23,NW,312,0.0,0.0,94,0.00,FEW,,0.00,0.0,WeatherDisplay:10.37,2013-08-04 08:18:00,
2013-08-04 03:23:00,45.8,44.2,30.23,NW,313,0.0,0.0,94,0.00,FEW,,0.00,0.0,WeatherDisplay:10.37,2013-08-04 08:23:00,
2013-08-04 03:28:00,45.0,43.4,30.23,NW,313,0.0,0.0,94,0.00,FEW,,0.00,0.0,WeatherDisplay:10.37,2013-08-04 08:28:00,
2013-08-04 03:33:00,45.8,44.2,30.23,NW,313,0.0,0.0,94,0.00,FEW,,0.00,0.0,WeatherDisplay:10.37,2013-08-04 08:33:00,
2013-08-04 03:38:00,45.8,44.2,30.23,NW,313,0.0,0.0,94,0.00,FEW,,0.00,0.0,WeatherDisplay:10.37,2013-08-04 08:38:00,
2013-08-04 03:43:00,44.6,43.0,30.22,NW,313,0.0,0.0,94,0.00,FEW,,0.00,0.0,WeatherDisplay:10.37,2013-08-04 08:43:00,
2013-08-04 03:48:00,44.5,42.9,30.22,NW,313,0.0,0.0,94,0.00,FEW,,0.00,0.0,WeatherDisplay:10.37,2013-08-04 08:48:00,
2013-08-04 03:53:00,44.5,42.9,30.22,NW,313,0.0,0.0,94,0.00,FEW,,0.00,0.0,WeatherDisplay:10.37,2013-08-04 08:53:00,
2013-08-04 03:58:00,44.4,42.8,30.22,NW,312,0.0,0.0,94,0.00,FEW,,0.00,0.0,WeatherDisplay:10.37,2013-08-04 08:58:00,
2013-08-04 04:03:00,44.2,42.6,30.22,NW,313,0.0,0.0,94,0.00,FEW,,0.00,0.0,WeatherDisplay:10.37,2013-08-04 09:03:00,
2013-08-04 04:08:00,44.2,42.6,30.22,NW,312,0.0,0.0,94,0.00,FEW,,0.00,0.0,WeatherDisplay:10.37,2013-08-04 09:08:00,
2013-08-04 04:13:00,44.1,42.5,30.22,NW,312,0.0,0.0,94,0.00,FEW,,0.00,0.0,WeatherDisplay:10.37,2013-08-04 09:13:00,
2013-08-04 04:18:00,44.0,42.4,30.22,NW,312,0.0,0.0,94,0.00,CLR,,0.00,0.0,WeatherDisplay:10.37,2013-08-04 09:18:00,
2013-08-04 04:23:00,43.9,42.3,30.23,NW,313,0.0,0.0,94,0.00,CLR,,0.00,0.0,WeatherDisplay:10.37,2013-08-04 09:23:00,
2013-08-04 04:28:00,43.8,42.2,30.22,NW,312,0.0,0.0,94,0.00,CLR,,0.00,0.0,WeatherDisplay:10.37,2013-08-04 09:28:00,
2013-08-04 04:33:00,44.1,42.5,30.22,NW,312,0.0,0.0,94,0.00,CLR,,0.00,0.0,WeatherDisplay:10.37,2013-08-04 09:33:00,
2013-08-04 04:38:00,43.6,42.0,30.22,NW,313,0.0,0.0,94,0.00,CLR,,0.00,0.0,WeatherDisplay:10.37,2013-08-04 09:38:00,
2013-08-04 04:43:00,43.7,42.1,30.22,NW,313,0.0,0.0,94,0.00,CLR,,0.00,0.0,WeatherDisplay:10.37,2013-08-04 09:43:00,
2013-08-04 04:48:00,43.4,41.8,30.23,NW,312,0.0,0.0,94,0.00,BKN,,0.00,0.0,WeatherDisplay:10.37,2013-08-04 09:48:00,
2013-08-04 04:53:00,43.4,41.8,30.22,NW,313,0.0,0.0,94,0.00,BKN,,0.00,0.0,WeatherDisplay:10.37,2013-08-04 09:53:00,
2013-08-04 04:58:00,43.4,41.8,30.22,NW,313,0.0,0.0,94,0.00,BKN,,0.00,0.0,WeatherDisplay:10.37,2013-08-04 09:58:00,
2013-08-04 05:03:00,43.4,42.1,30.21,NW,313,0.0,0.0,95,0.00,BKN,,0.00,0.0,WeatherDisplay:10.37,2013-08-04 10:03:00,
2013-08-04 05:08:00,43.4,42.1,30.21,NW,312,0.0,0.0,95,0.00,BKN,,0.00,0.0,WeatherDisplay:10.37,2013-08-04 10:08:00,
2013-08-04 05:13:00,43.4,42.1,30.22,NW,313,0.0,0.0,95,0.00,BKN,,0.00,0.0,WeatherDisplay:10.37,2013-08-04 10:13:00,
2013-08-04 05:18:00,43.3,42.0,30.22,NW,313,0.0,0.0,95,0.00,OVC,,0.00,0.0,WeatherDisplay:10.37,2013-08-04 10:18:00,
2013-08-04 05:23:00,43.2,41.9,30.22,NW,313,0.0,0.0,95,0.00,OVC,,0.00,0.0,WeatherDisplay:10.37,2013-08-04 10:23:00,
2013-08-04 05:28:00,43.0,41.7,30.22,NW,312,0.0,0.0,95,0.00,OVC,,0.00,0.0,WeatherDisplay:10.37,2013-08-04 10:28:00,
2013-08-04 05:33:00,42.9,41.6,30.22,NW,313,0.0,0.0,95,0.00,FEW,,0.00,0.0,WeatherDisplay:10.37,2013-08-04 10:33:00,
2013-08-04 05:38:00,42.9,41.6,30.22,NW,313,0.0,0.0,95,0.00,FEW,,0.00,0.0,WeatherDisplay:10.37,2013-08-04 10:38:00,
2013-08-04 05:43:00,42.8,41.5,30.22,NW,312,0.0,0.0,95,0.00,FEW,,0.00,0.0,WeatherDisplay:10.37,2013-08-04 10:43:00,
2013-08-04 05:48:00,42.8,41.5,30.22,NW,313,0.0,0.0,95,0.00,FEW,,0.00,0.0,WeatherDisplay:10.37,2013-08-04 10:48:00,
2013-08-04 05:53:00,42.8,41.5,30.22,NW,312,0.0,0.0,95,0.00,FEW,,0.00,0.0,WeatherDisplay:10.37,2013-08-04 10:53:00,
2013-08-04 05:59:00,42.6,41.3,30.22,NW,313,0.0,0.0,95,0.00,FEW,,0.00,0.0,WeatherDisplay:10.37,2013-08-04 10:59:00,
2013-08-04 06:04:00,42.6,41.3,30.22,NW,313,0.0,0.0,95,0.00,CLR,,0.00,0.0,WeatherDisplay:10.37,2013-08-04 11:04:00,
2013-08-04 06:09:00,42.6,41.3,30.22,NW,312,0.0,0.0,95,0.00,CLR,,0.00,5.0,WeatherDisplay:10.37,2013-08-04 11:09:00,
2013-08-04 06:14:00,42.6,41.3,30.22,NW,312,0.0,0.0,95,0.00,CLR,,0.00,7.0,WeatherDisplay:10.37,2013-08-04 11:14:00,
2013-08-04 06:19:00,42.8,41.5,30.22,NW,312,0.0,0.0,95,0.00,CLR,,0.00,0.0,WeatherDisplay:10.37,2013-08-04 11:19:00,
2013-08-04 06:24:00,42.7,41.4,30.22,NW,313,0.0,0.0,95,0.00,CLR,,0.00,9.0,WeatherDisplay:10.37,2013-08-04 11:24:00,
2013-08-04 06:29:00,42.7,41.4,30.22,NW,313,0.0,0.0,95,0.00,CLR,,0.00,9.0,WeatherDisplay:10.37,2013-08-04 11:29:00,
2013-08-04 06:33:00,42.7,41.4,30.22,NW,313,0.0,0.0,95,0.00,CLR,,0.00,9.0,WeatherDisplay:10.37,2013-08-04 11:33:00,
2013-08-04 06:39:00,42.7,41.4,30.22,NW,313,0.0,0.0,95,0.00,CLR,,0.00,9.0,WeatherDisplay:10.37,2013-08-04 11:39:00,
2013-08-04 06:44:00,42.7,41.4,30.22,NW,313,0.0,0.0,95,0.00,CLR,,0.00,9.0,WeatherDisplay:10.37,2013-08-04 11:44:00,
2013-08-04 06:49:00,42.8,41.5,30.23,NW,313,0.0,0.0,95,0.00,CLR,,0.00,14.0,WeatherDisplay:10.37,2013-08-04 11:49:00,
2013-08-04 06:54:00,42.7,41.4,30.23,NW,313,0.0,0.0,95,0.00,CLR,,0.00,12.0,WeatherDisplay:10.37,2013-08-04 11:54:00,
2013-08-04 06:59:00,42.7,41.4,30.23,NW,313,0.0,0.0,95,0.00,CLR,,0.00,12.0,WeatherDisplay:10.37,2013-08-04 11:59:00,
2013-08-04 07:04:00,42.7,41.4,30.23,NW,313,0.0,0.0,95,0.00,CLR,,0.00,12.0,WeatherDisplay:10.37,2013-08-04 12:04:00,
2013-08-04 07:08:00,43.5,42.4,30.24,NW,313,0.0,0.0,96,0.00,CLR,,0.00,18.0,WeatherDisplay:10.37,2013-08-04 12:08:00,
2013-08-04 07:14:00,42.7,41.4,30.23,NW,313,0.0,0.0,95,0.00,CLR,,0.00,12.0,WeatherDisplay:10.37,2013-08-04 12:14:00,
2013-08-04 07:19:00,44.0,42.9,30.24,NW,313,0.0,0.0,96,0.00,FEW,,0.00,18.0,WeatherDisplay:10.37,2013-08-04 12:19:00,
2013-08-04 07:24:00,44.3,43.2,30.24,NW,313,0.0,0.0,96,0.00,FEW,,0.00,19.0,WeatherDisplay:10.37,2013-08-04 12:24:00,
2013-08-04 07:29:00,44.7,43.9,30.25,NW,313,0.0,0.0,97,0.00,FEW,,0.00,21.0,WeatherDisplay:10.37,2013-08-04 12:29:00,
2013-08-04 07:34:00,44.9,44.1,30.24,NW,312,0.0,0.0,97,0.00,FEW,,0.00,21.0,WeatherDisplay:10.37,2013-08-04 12:34:00,
2013-08-04 07:39:00,42.7,41.4,30.23,NW,313,0.0,0.0,95,0.00,FEW,,0.00,12.0,WeatherDisplay:10.37,2013-08-04 12:39:00,
2013-08-04 07:44:00,42.7,41.4,30.23,NW,313,0.0,0.0,95,0.00,FEW,,0.00,12.0,WeatherDisplay:10.37,2013-08-04 12:44:00,
2013-08-04 07:49:00,46.1,45.3,30.24,NW,313,0.0,0.0,97,0.00,FEW,,0.00,25.0,WeatherDisplay:10.37,2013-08-04 12:49:00,
2013-08-04 07:54:00,46.6,45.8,30.24,NW,312,0.0,0.0,97,0.00,FEW,,0.00,58.0,WeatherDisplay:10.37,2013-08-04 12:54:00,
2013-08-04 07:59:00,47.6,46.8,30.25,NW,312,0.0,0.0,97,0.00,FEW,,0.00,42.0,WeatherDisplay:10.37,2013-08-04 12:59:00,
2013-08-04 08:04:00,48.6,47.8,30.24,NW,312,0.0,0.0,97,0.00,SCT,,0.00,44.0,WeatherDisplay:10.37,2013-08-04 13:04:00,
2013-08-04 08:09:00,49.0,48.2,30.24,NW,312,0.0,0.0,97,0.00,SCT,,0.00,91.0,WeatherDisplay:10.37,2013-08-04 13:09:00,
2013-08-04 08:14:00,49.7,48.9,30.24,NW,312,0.0,0.0,97,0.00,SCT,,0.00,37.0,WeatherDisplay:10.37,2013-08-04 13:14:00,
2013-08-04 08:19:00,50.2,49.7,30.25,NW,312,0.0,0.0,98,0.00,SCT,,0.00,30.0,WeatherDisplay:10.37,2013-08-04 13:19:00,
2013-08-04 08:24:00,49.0,48.2,30.24,NW,312,0.0,0.0,97,0.00,SCT,,0.00,91.0,WeatherDisplay:10.37,2013-08-04 13:24:00,
2013-08-04 08:29:00,49.0,48.2,30.24,NW,312,0.0,0.0,97,0.00,SCT,,0.00,91.0,WeatherDisplay:10.37,2013-08-04 13:29:00,
2013-08-04 08:34:00,49.0,48.2,30.24,NW,312,0.0,0.0,97,0.00,SCT,,0.00,91.0,WeatherDisplay:10.37,2013-08-04 13:34:00,
2013-08-04 08:39:00,52.5,52.0,30.24,NW,312,0.0,0.0,98,0.00,SCT,,0.00,39.0,WeatherDisplay:10.37,2013-08-04 13:39:00,
2013-08-04 08:44:00,53.1,52.6,30.25,NW,313,0.0,0.0,98,0.00,SCT,,0.00,46.0,WeatherDisplay:10.37,2013-08-04 13:44:00,
2013-08-04 08:49:00,53.7,53.1,30.24,NW,313,0.0,0.0,98,0.00,SCT,,0.00,62.0,WeatherDisplay:10.37,2013-08-04 13:49:00,
2013-08-04 08:54:00,54.4,53.8,30.24,NW,312,1.1,1.1,98,0.00,SCT,,0.00,111.0,WeatherDisplay:10.37,2013-08-04 13:54:00,
2013-08-04 08:59:00,55.2,54.6,30.24,NW,312,0.0,0.0,98,0.00,SCT,,0.00,113.0,WeatherDisplay:10.37,2013-08-04 13:59:00,
2013-08-04 09:04:00,55.9,55.3,30.24,NW,312,0.0,0.0,98,0.00,SCT,,0.00,91.0,WeatherDisplay:10.37,2013-08-04 14:04:00,
2013-08-04 09:09:00,52.3,51.8,30.24,NW,313,0.0,0.0,98,0.00,SCT,,0.00,65.0,WeatherDisplay:10.37,2013-08-04 14:09:00,
2013-08-04 09:14:00,52.3,51.8,30.24,NW,313,0.0,0.0,98,0.00,SCT,,0.00,65.0,WeatherDisplay:10.37,2013-08-04 14:14:00,
2013-08-04 09:19:00,52.3,51.8,30.24,NW,313,0.0,0.0,98,0.00,FEW,,0.00,65.0,WeatherDisplay:10.37,2013-08-04 14:19:00,
2013-08-04 09:24:00,58.6,55.7,30.24,SSE,167,1.1,1.1,90,0.00,FEW,,0.00,63.0,WeatherDisplay:10.37,2013-08-04 14:24:00,
2013-08-04 09:29:00,59.4,55.5,30.24,SSE,167,1.1,1.1,87,0.00,FEW,,0.00,79.0,WeatherDisplay:10.37,2013-08-04 14:29:00,
2013-08-04 09:34:00,60.1,54.6,30.24,South,190,1.1,0.0,82,0.00,FEW,,0.00,77.0,WeatherDisplay:10.37,2013-08-04 14:34:00,
2013-08-04 09:39:00,60.7,54.8,30.25,SE,146,2.3,2.3,81,0.00,FEW,,0.00,79.0,WeatherDisplay:10.37,2013-08-04 14:39:00,
2013-08-04 09:44:00,61.3,54.7,30.25,West,261,3.5,3.5,79,0.00,FEW,,0.00,72.0,WeatherDisplay:10.37,2013-08-04 14:44:00,
2013-08-04 09:49:00,61.8,55.2,30.25,SSE,157,1.1,1.5,79,0.00,FEW,,0.00,65.0,WeatherDisplay:10.37,2013-08-04 14:49:00,
2013-08-04 09:54:00,61.1,54.9,30.25,SSE,156,3.5,3.5,80,0.00,FEW,,0.00,76.0,WeatherDisplay:10.37,2013-08-04 14:54:00,
2013-08-04 09:59:00,62.7,53.9,30.25,SW,234,2.3,2.3,73,0.00,FEW,,0.00,67.0,WeatherDisplay:10.37,2013-08-04 14:59:00,
2013-08-04 10:04:00,63.1,53.9,30.25,SSW,207,1.1,1.1,72,0.00,FEW,,0.00,83.0,WeatherDisplay:10.37,2013-08-04 15:04:00,
2013-08-04 10:09:00,63.5,53.9,30.25,WSW,258,3.5,3.5,71,0.00,FEW,,0.00,81.0,WeatherDisplay:10.37,2013-08-04 15:09:00,
2013-08-04 10:14:00,63.8,53.4,30.25,SE,144,1.1,1.1,69,0.00,FEW,,0.00,142.0,WeatherDisplay:10.37,2013-08-04 15:14:00,
2013-08-04 10:19:00,64.1,55.3,30.24,ESE,123,1.1,1.1,73,0.00,FEW,,0.00,146.0,WeatherDisplay:10.37,2013-08-04 15:19:00,
2013-08-04 10:24:00,64.4,54.0,30.24,SE,140,3.0,3.0,69,0.00,FEW,,0.00,120.0,WeatherDisplay:10.37,2013-08-04 15:24:00,
2013-08-04 10:29:00,64.7,53.5,30.24,WSW,237,1.1,1.1,67,0.00,FEW,,0.00,102.0,WeatherDisplay:10.37,2013-08-04 15:29:00,
2013-08-04 10:34:00,64.8,54.0,30.24,SE,144,2.3,2.3,68,0.00,FEW,,0.00,100.0,WeatherDisplay:10.37,2013-08-04 15:34:00,
2013-08-04 10:39:00,65.0,54.2,30.24,SSW,210,3.5,3.5,68,0.00,FEW,,0.00,100.0,WeatherDisplay:10.37,2013-08-04 15:39:00,
2013-08-04 10:44:00,65.3,53.6,30.24,WSW,244,0.0,0.4,66,0.00,FEW,,0.00,127.0,WeatherDisplay:10.37,2013-08-04 15:44:00,
2013-08-04 10:49:00,65.7,56.0,30.23,SSE,160,1.0,1.0,71,0.00,FEW,,0.00,113.0,WeatherDisplay:10.37,2013-08-04 15:49:00,
2013-08-04 10:54:00,65.9,55.0,30.23,WSW,255,2.3,2.3,68,0.00,FEW,,0.00,116.0,WeatherDisplay:10.37,2013-08-04 15:54:00,
2013-08-04 10:59:00,65.8,54.1,30.23,SSE,163,2.3,2.3,66,0.00,FEW,,0.00,116.0,WeatherDisplay:10.37,2013-08-04 15:59:00,
2013-08-04 11:04:00,66.5,54.8,30.22,SE,128,4.6,4.6,66,0.00,CLR,,0.00,299.0,WeatherDisplay:10.37,2013-08-04 16:04:00,
2013-08-04 11:09:00,67.0,53.1,30.23,SW,221,1.1,1.1,61,0.00,CLR,,0.00,701.0,WeatherDisplay:10.37,2013-08-04 16:09:00,
2013-08-04 11:14:00,67.7,54.6,30.23,ESE,109,2.3,2.3,63,0.00,CLR,,0.00,719.0,WeatherDisplay:10.37,2013-08-04 16:14:00,
2013-08-04 11:19:00,68.1,53.7,30.22,West,265,3.5,3.5,60,0.00,CLR,,0.00,735.0,WeatherDisplay:10.37,2013-08-04 16:19:00,
2013-08-04 11:24:00,68.7,52.4,30.22,SW,214,3.5,3.5,56,0.00,CLR,,0.00,742.0,WeatherDisplay:10.37,2013-08-04 16:24:00,
2013-08-04 11:29:00,67.3,54.3,30.23,ESE,119,2.3,3.0,63,0.00,CLR,,0.00,670.0,WeatherDisplay:10.37,2013-08-04 16:29:00,
2013-08-04 11:34:00,67.3,54.3,30.23,ESE,119,2.3,3.0,63,0.00,CLR,,0.00,670.0,WeatherDisplay:10.37,2013-08-04 16:34:00,
2013-08-04 11:39:00,68.5,52.7,30.22,SSW,209,1.0,1.0,57,0.00,CLR,,0.00,227.0,WeatherDisplay:10.37,2013-08-04 16:39:00,
2013-08-04 11:44:00,68.1,50.8,30.22,West,267,1.1,1.1,54,0.00,CLR,,0.00,244.0,WeatherDisplay:10.37,2013-08-04 16:44:00,
2013-08-04 11:49:00,67.3,54.3,30.23,ESE,119,2.3,3.0,63,0.00,CLR,,0.00,670.0,WeatherDisplay:10.37,2013-08-04 16:49:00,
2013-08-04 11:54:00,67.9,55.7,30.21,West,267,1.1,1.1,65,0.00,CLR,,0.00,274.0,WeatherDisplay:10.37,2013-08-04 16:54:00,
2013-08-04 12:00:00,67.8,52.5,30.21,West,267,0.0,0.0,58,0.00,CLR,,0.00,246.0,WeatherDisplay:10.37,2013-08-04 17:00:00,
2013-08-04 12:05:00,68.1,55.9,30.21,SSW,199,1.0,1.0,65,0.00,CLR,,0.00,1009.0,WeatherDisplay:10.37,2013-08-04 17:05:00,
2013-08-04 12:10:00,69.1,56.0,30.21,SSW,196,2.0,2.0,63,0.00,CLR,,0.00,930.0,WeatherDisplay:10.37,2013-08-04 17:10:00,
2013-08-04 12:15:00,70.0,52.1,30.20,ESE,123,0.0,0.1,53,0.00,CLR,,0.00,921.0,WeatherDisplay:10.37,2013-08-04 17:15:00,
2013-08-04 12:20:00,70.3,54.8,30.20,ESE,123,2.3,2.3,58,0.00,BKN,,0.00,907.0,WeatherDisplay:10.37,2013-08-04 17:20:00,
2013-08-04 12:25:00,70.3,54.8,30.20,WSW,254,1.1,0.0,58,0.00,BKN,,0.00,216.0,WeatherDisplay:10.37,2013-08-04 17:25:00,
2013-08-04 12:30:00,69.9,53.5,30.20,SSE,163,1.1,0.0,56,0.00,BKN,,0.00,218.0,WeatherDisplay:10.37,2013-08-04 17:30:00,
2013-08-04 12:35:00,69.7,55.2,30.20,SW,221,1.1,1.1,60,0.00,BKN,,0.00,221.0,WeatherDisplay:10.37,2013-08-04 17:35:00,
2013-08-04 12:40:00,69.2,51.8,30.19,West,265,0.0,0.0,54,0.00,BKN,,0.00,141.0,WeatherDisplay:10.37,2013-08-04 17:40:00,
2013-08-04 12:45:00,69.1,52.2,30.19,West,265,0.0,0.0,55,0.00,BKN,,0.00,139.0,WeatherDisplay:10.37,2013-08-04 17:45:00,
2013-08-04 12:50:00,69.1,52.2,30.19,West,265,0.0,0.0,55,0.00,BKN,,0.00,139.0,WeatherDisplay:10.37,2013-08-04 17:50:00,
2013-08-04 12:55:00,69.1,52.2,30.19,West,265,0.0,0.0,55,0.00,BKN,,0.00,139.0,WeatherDisplay:10.37,2013-08-04 17:55:00,
2013-08-04 13:00:00,69.1,52.2,30.19,West,265,0.0,0.0,55,0.00,BKN,,0.00,139.0,WeatherDisplay:10.37,2013-08-04 18:00:00,
2013-08-04 13:05:00,69.1,52.2,30.19,West,265,0.0,0.0,55,0.00,BKN,,0.00,139.0,WeatherDisplay:10.37,2013-08-04 18:05:00,
2013-08-04 13:10:00,68.0,51.7,30.19,South,174,0.0,0.0,56,0.00,BKN,,0.00,118.0,WeatherDisplay:10.37,2013-08-04 18:10:00,
2013-08-04 13:15:00,67.9,54.8,30.19,WNW,298,3.5,3.5,63,0.00,BKN,,0.00,113.0,WeatherDisplay:10.37,2013-08-04 18:15:00,
2013-08-04 13:20:00,67.6,55.0,30.19,WNW,298,0.0,0.0,64,0.00,OVC,,0.00,114.0,WeatherDisplay:10.37,2013-08-04 18:20:00,
2013-08-04 13:25:00,67.5,54.5,30.19,WNW,286,1.0,0.0,63,0.00,OVC,,0.00,144.0,WeatherDisplay:10.37,2013-08-04 18:25:00,
2013-08-04 13:30:00,67.4,53.9,30.19,WNW,284,0.0,0.0,62,0.00,OVC,,0.00,211.0,WeatherDisplay:10.37,2013-08-04 18:30:00,
2013-08-04 13:35:00,67.5,55.3,30.18,West,268,0.0,0.0,65,0.00,OVC,,0.00,276.0,WeatherDisplay:10.37,2013-08-04 18:35:00,
2013-08-04 13:40:00,67.4,53.9,30.19,WNW,284,1.1,0.0,62,0.00,OVC,,0.00,211.0,WeatherDisplay:10.37,2013-08-04 18:40:00,
2013-08-04 13:45:00,67.4,53.9,30.19,WNW,284,1.1,0.0,62,0.00,OVC,,0.00,211.0,WeatherDisplay:10.37,2013-08-04 18:45:00,
2013-08-04 13:50:00,68.1,52.3,30.18,West,269,3.5,3.5,57,0.00,OVC,,0.00,348.0,WeatherDisplay:10.37,2013-08-04 18:50:00,
2013-08-04 13:55:00,68.3,52.0,30.18,WSW,250,2.3,2.3,56,0.00,OVC,,0.00,334.0,WeatherDisplay:10.37,2013-08-04 18:55:00,
2013-08-04 14:00:00,68.6,53.7,30.18,WSW,246,3.5,3.5,59,0.00,OVC,,0.00,357.0,WeatherDisplay:10.37,2013-08-04 19:00:00,
2013-08-04 14:05:00,68.6,53.2,30.18,WSW,246,1.1,1.1,58,0.00,OVC,,0.00,343.0,WeatherDisplay:10.37,2013-08-04 19:05:00,
2013-08-04 14:10:00,68.6,53.2,30.18,WSW,246,1.1,1.1,58,0.00,OVC,,0.00,343.0,WeatherDisplay:10.37,2013-08-04 19:10:00,
2013-08-04 14:15:00,69.3,52.4,30.18,WSW,238,3.5,3.5,55,0.00,OVC,,0.00,396.0,WeatherDisplay:10.37,2013-08-04 19:15:00,
2013-08-04 14:20:00,69.2,54.7,30.18,WSW,240,0.0,0.0,60,0.00,OVC,,0.00,396.0,WeatherDisplay:10.37,2013-08-04 19:20:00,
2013-08-04 14:25:00,70.4,52.4,30.18,WNW,282,2.3,2.3,53,0.00,OVC,,0.00,817.0,WeatherDisplay:10.37,2013-08-04 19:25:00,
2013-08-04 14:30:00,70.8,52.3,30.18,WNW,296,3.5,3.5,52,0.00,OVC,,0.00,737.0,WeatherDisplay:10.37,2013-08-04 19:30:00,
2013-08-04 14:35:00,69.8,54.4,30.18,SW,236,0.0,0.2,58,0.00,OVC,,0.00,824.0,WeatherDisplay:10.37,2013-08-04 19:35:00,
2013-08-04 14:40:00,69.8,54.4,30.18,SW,236,0.0,0.2,58,0.00,OVC,,0.00,824.0,WeatherDisplay:10.37,2013-08-04 19:40:00,
2013-08-04 14:45:00,71.4,54.4,30.17,WSW,251,2.3,2.3,55,0.00,OVC,,0.00,445.0,WeatherDisplay:10.37,2013-08-04 19:45:00,
2013-08-04 14:50:00,69.8,54.4,30.18,SW,236,0.0,0.2,58,0.00,OVC,,0.00,824.0,WeatherDisplay:10.37,2013-08-04 19:50:00,
2013-08-04 14:55:00,71.4,51.8,30.17,South,175,0.0,0.0,50,0.00,OVC,,0.00,418.0,WeatherDisplay:10.37,2013-08-04 19:55:00,
2013-08-04 15:00:00,71.2,52.1,30.17,SSW,213,2.3,2.3,51,0.00,OVC,,0.00,364.0,WeatherDisplay:10.37,2013-08-04 20:00:00,
2013-08-04 15:05:00,71.2,52.1,30.17,SSW,213,0.0,0.6,51,0.00,OVC,,0.00,364.0,WeatherDisplay:10.37,2013-08-04 20:05:00,
2013-08-04 15:10:00,70.8,55.3,30.16,SE,146,1.0,1.0,58,0.00,OVC,,0.00,362.0,WeatherDisplay:10.37,2013-08-04 20:10:00,
2013-08-04 15:15:00,70.7,52.7,30.17,East,101,1.1,1.1,53,0.00,OVC,,0.00,316.0,WeatherDisplay:10.37,2013-08-04 20:15:00,
2013-08-04 15:20:00,70.8,54.8,30.17,ESE,103,0.0,0.1,57,0.00,OVC,,0.00,341.0,WeatherDisplay:10.37,2013-08-04 20:20:00,
2013-08-04 15:25:00,70.9,54.9,30.17,ESE,107,1.1,0.0,57,0.00,OVC,,0.00,308.0,WeatherDisplay:10.37,2013-08-04 20:25:00,
2013-08-04 15:30:00,70.5,52.0,30.17,West,280,1.1,1.1,52,0.00,OVC,,0.00,299.0,WeatherDisplay:10.37,2013-08-04 20:30:00,
2013-08-04 15:35:00,70.5,53.6,30.16,WNW,302,2.3,2.3,55,0.00,OVC,,0.00,278.0,WeatherDisplay:10.37,2013-08-04 20:35:00,
2013-08-04 15:40:00,70.5,55.0,30.16,WNW,302,1.1,0.0,58,0.00,OVC,,0.00,267.0,WeatherDisplay:10.37,2013-08-04 20:40:00,
2013-08-04 15:45:00,70.4,50.9,30.16,WNW,294,2.3,2.3,50,0.00,OVC,,0.00,264.0,WeatherDisplay:10.37,2013-08-04 20:45:00,
2013-08-04 15:50:00,70.3,52.9,30.16,WNW,294,0.0,0.0,54,0.00,OVC,,0.00,274.0,WeatherDisplay:10.37,2013-08-04 20:50:00,
2013-08-04 15:55:00,70.3,53.9,30.15,WNW,294,0.0,0.1,56,0.00,OVC,,0.00,392.0,WeatherDisplay:10.37,2013-08-04 20:55:00,
2013-08-04 16:00:00,70.3,52.9,30.16,WNW,294,0.0,0.0,54,0.00,OVC,,0.00,274.0,WeatherDisplay:10.37,2013-08-04 21:00:00,
2013-08-04 16:05:00,70.3,52.9,30.16,WNW,294,0.0,0.0,54,0.00,SCT,,0.00,274.0,WeatherDisplay:10.37,2013-08-04 21:05:00,
2013-08-04 16:10:00,70.4,56.8,30.15,NW,313,1.0,1.0,62,0.00,SCT,,0.00,271.0,WeatherDisplay:10.37,2013-08-04 21:10:00,
2013-08-04 16:15:00,70.4,55.8,30.15,NW,313,0.0,0.0,60,0.00,SCT,,0.00,373.0,WeatherDisplay:10.37,2013-08-04 21:15:00,
2013-08-04 16:20:00,70.4,56.3,30.15,NW,313,0.0,0.1,61,0.00,SCT,,0.00,292.0,WeatherDisplay:10.37,2013-08-04 21:20:00,
2013-08-04 16:25:00,70.3,54.3,30.15,NW,313,0.0,0.0,57,0.00,SCT,,0.00,258.0,WeatherDisplay:10.37,2013-08-04 21:25:00,
2013-08-04 16:30:00,70.3,54.3,30.15,NW,313,0.0,0.0,57,0.00,SCT,,0.00,258.0,WeatherDisplay:10.37,2013-08-04 21:30:00,
2013-08-04 16:35:00,70.3,53.9,30.15,WNW,296,2.3,0.0,56,0.00,SCT,,0.00,149.0,WeatherDisplay:10.37,2013-08-04 21:35:00,
2013-08-04 16:40:00,70.1,55.1,30.15,WNW,296,0.0,0.0,59,0.00,SCT,,0.00,265.0,WeatherDisplay:10.37,2013-08-04 21:40:00,
2013-08-04 16:45:00,70.3,55.3,30.15,WNW,296,0.0,0.5,59,0.00,SCT,,0.00,213.0,WeatherDisplay:10.37,2013-08-04 21:45:00,
2013-08-04 16:49:00,70.3,55.3,30.15,WNW,296,0.0,0.5,59,0.00,SCT,,0.00,213.0,WeatherDisplay:10.37,2013-08-04 21:49:00,
2013-08-04 16:54:00,70.3,55.3,30.15,WNW,296,0.0,0.5,59,0.00,SCT,,0.00,213.0,WeatherDisplay:10.37,2013-08-04 21:54:00,
2013-08-04 16:59:00,70.3,55.3,30.15,WNW,296,0.0,0.5,59,0.00,SCT,,0.00,213.0,WeatherDisplay:10.37,2013-08-04 21:59:00,
2013-08-04 17:04:00,70.3,55.3,30.15,WNW,296,0.0,0.5,59,0.00,CLR,,0.00,213.0,WeatherDisplay:10.37,2013-08-04 22:04:00,
2013-08-04 17:09:00,70.3,55.3,30.15,WNW,296,0.0,0.5,59,0.00,CLR,,0.00,213.0,WeatherDisplay:10.37,2013-08-04 22:09:00,
2013-08-04 17:14:00,70.3,55.3,30.15,WNW,296,0.0,0.5,59,0.00,CLR,,0.00,213.0,WeatherDisplay:10.37,2013-08-04 22:14:00,
2013-08-04 17:19:00,70.7,57.5,30.14,WSW,240,0.0,0.0,63,0.00,CLR,,0.00,118.0,WeatherDisplay:10.37,2013-08-04 22:19:00,
2013-08-04 17:24:00,70.4,57.6,30.13,WSW,240,0.0,0.0,64,0.00,CLR,,0.00,105.0,WeatherDisplay:10.37,2013-08-04 22:24:00,
2013-08-04 17:29:00,70.8,57.1,30.13,WSW,240,0.0,0.2,62,0.00,CLR,,0.00,127.0,WeatherDisplay:10.37,2013-08-04 22:29:00,
2013-08-04 17:34:00,70.8,57.1,30.13,WSW,240,0.0,0.2,62,0.00,CLR,,0.00,127.0,WeatherDisplay:10.37,2013-08-04 22:34:00,
2013-08-04 17:39:00,70.8,57.1,30.13,WSW,240,0.0,0.2,62,0.00,CLR,,0.00,127.0,WeatherDisplay:10.37,2013-08-04 22:39:00,
2013-08-04 17:44:00,70.8,57.1,30.13,WSW,240,0.0,0.2,62,0.00,CLR,,0.00,127.0,WeatherDisplay:10.37,2013-08-04 22:44:00,
2013-08-04 17:49:00,68.2,58.0,30.13,WSW,240,0.0,0.0,70,0.00,CLR,,0.00,118.0,WeatherDisplay:10.37,2013-08-04 22:49:00,
2013-08-04 17:54:00,67.9,57.8,30.12,WSW,240,0.0,0.0,70,0.00,CLR,,0.00,125.0,WeatherDisplay:10.37,2013-08-04 22:54:00,
2013-08-04 17:59:00,67.7,58.0,30.12,WSW,240,0.0,0.0,71,0.00,CLR,,0.00,123.0,WeatherDisplay:10.37,2013-08-04 22:59:00,
2013-08-04 18:04:00,67.6,58.6,30.12,WSW,240,0.0,0.0,73,0.00,CLR,,0.00,125.0,WeatherDisplay:10.37,2013-08-04 23:04:00,
2013-08-04 18:09:00,68.0,57.8,30.12,WSW,240,0.0,0.0,70,0.00,CLR,,0.00,123.0,WeatherDisplay:10.37,2013-08-04 23:09:00,
2013-08-04 18:14:00,68.0,57.8,30.12,WSW,240,0.0,0.0,70,0.00,CLR,,0.00,123.0,WeatherDisplay:10.37,2013-08-04 23:14:00,
2013-08-04 18:19:00,67.1,57.8,30.11,WSW,240,1.1,0.0,72,0.00,CLR,,0.00,28.0,WeatherDisplay:10.37,2013-08-04 23:19:00,
2013-08-04 18:24:00,67.0,55.7,30.11,WSW,240,0.0,0.0,67,0.00,CLR,,0.00,42.0,WeatherDisplay:10.37,2013-08-04 23:24:00,
2013-08-04 18:29:00,66.8,55.1,30.11,WSW,240,0.0,0.0,66,0.00,CLR,,0.00,40.0,WeatherDisplay:10.37,2013-08-04 23:29:00,
2013-08-04 18:34:00,68.0,57.8,30.12,WSW,240,0.0,0.0,70,0.00,CLR,,0.00,123.0,WeatherDisplay:10.37,2013-08-04 23:34:00,
2013-08-04 18:39:00,66.2,55.3,30.11,WSW,240,0.0,0.0,68,0.00,CLR,,0.00,54.0,WeatherDisplay:10.37,2013-08-04 23:39:00,
2013-08-04 18:44:00,68.0,57.8,30.12,WSW,240,0.0,0.0,70,0.00,CLR,,0.00,123.0,WeatherDisplay:10.37,2013-08-04 23:44:00,
2013-08-04 18:49:00,65.7,55.6,30.10,WSW,240,0.0,0.0,70,0.00,CLR,,0.00,56.0,WeatherDisplay:10.37,2013-08-04 23:49:00,
2013-08-04 18:54:00,68.0,57.8,30.12,WSW,240,0.0,0.0,70,0.00,CLR,,0.00,123.0,WeatherDisplay:10.37,2013-08-04 23:54:00,
2013-08-04 18:59:00,68.0,57.8,30.12,WSW,240,0.0,0.0,70,0.00,CLR,,0.00,123.0,WeatherDisplay:10.37,2013-08-04 23:59:00,
2013-08-04 19:04:00,65.2,55.2,30.10,WSW,240,0.0,0.0,70,0.00,CLR,,0.00,33.0,WeatherDisplay:10.37,2013-08-05 00:04:00,
2013-08-04 19:09:00,65.0,55.4,30.10,WSW,240,0.0,0.0,71,0.00,CLR,,0.00,23.0,WeatherDisplay:10.37,2013-08-05 00:09:00,
2013-08-04 19:14:00,68.0,57.8,30.12,WSW,240,0.0,0.0,70,0.00,CLR,,0.00,123.0,WeatherDisplay:10.37,2013-08-05 00:14:00,
2013-08-04 19:19:00,64.7,55.5,30.09,WSW,240,0.0,0.0,72,0.00,CLR,,0.00,33.0,WeatherDisplay:10.37,2013-08-05 00:19:00,
2013-08-04 19:24:00,64.3,55.1,30.09,WSW,240,0.0,0.0,72,0.00,CLR,,0.00,28.0,WeatherDisplay:10.37,2013-08-05 00:24:00,
2013-08-04 19:29:00,64.1,55.6,30.09,WSW,240,0.0,0.0,74,0.00,CLR,,0.00,21.0,WeatherDisplay:10.37,2013-08-05 00:29:00,
2013-08-04 19:34:00,64.7,55.5,30.09,WSW,240,0.0,0.0,72,0.00,CLR,,0.00,33.0,WeatherDisplay:10.37,2013-08-05 00:34:00,
2013-08-04 19:39:00,63.6,55.5,30.09,WSW,240,0.0,0.0,75,0.00,CLR,,0.00,18.0,WeatherDisplay:10.37,2013-08-05 00:39:00,
2013-08-04 19:44:00,63.3,55.2,30.08,WSW,240,0.0,0.0,75,0.00,CLR,,0.00,16.0,WeatherDisplay:10.37,2013-08-05 00:44:00,
2013-08-04 19:49:00,64.7,55.5,30.09,WSW,240,0.0,0.0,72,0.00,CLR,,0.00,33.0,WeatherDisplay:10.37,2013-08-05 00:49:00,
2013-08-04 19:54:00,62.7,55.4,30.08,WSW,240,0.0,0.0,77,0.00,CLR,,0.00,12.0,WeatherDisplay:10.37,2013-08-05 00:54:00,
2013-08-04 19:59:00,62.4,55.4,30.08,WSW,240,0.0,0.0,78,0.00,CLR,,0.00,9.0,WeatherDisplay:10.37,2013-08-05 00:59:00,
2013-08-04 20:04:00,62.1,55.5,30.08,WSW,240,0.0,0.0,79,0.00,CLR,,0.00,7.0,WeatherDisplay:10.37,2013-08-05 01:04:00,
2013-08-04 20:10:00,61.9,56.0,30.08,WSW,240,0.0,0.0,81,0.00,CLR,,0.00,7.0,WeatherDisplay:10.37,2013-08-05 01:10:00,
2013-08-04 20:15:00,64.7,55.5,30.09,WSW,240,0.0,0.0,72,0.00,CLR,,0.00,33.0,WeatherDisplay:10.37,2013-08-05 01:15:00,
2013-08-04 20:20:00,61.3,55.4,30.08,WSW,240,0.0,0.0,81,0.00,CLR,,0.00,0.0,WeatherDisplay:10.37,2013-08-05 01:20:00,
2013-08-04 20:25:00,64.7,55.5,30.09,WSW,240,0.0,0.0,72,0.00,CLR,,0.00,33.0,WeatherDisplay:10.37,2013-08-05 01:25:00,
2013-08-04 20:30:00,60.6,55.1,30.08,WSW,240,0.0,0.0,82,0.00,CLR,,0.00,0.0,WeatherDisplay:10.37,2013-08-05 01:30:00,
2013-08-04 20:35:00,60.8,55.3,30.08,WSW,240,0.0,0.0,82,0.00,CLR,,0.00,0.0,WeatherDisplay:10.37,2013-08-05 01:35:00,
2013-08-04 20:40:00,60.1,55.2,30.08,WSW,240,0.0,0.0,84,0.00,CLR,,0.00,0.0,WeatherDisplay:10.37,2013-08-05 01:40:00,
2013-08-04 20:45:00,60.1,55.2,30.08,WSW,240,0.0,0.0,84,0.00,CLR,,0.00,0.0,WeatherDisplay:10.37,2013-08-05 01:45:00,
2013-08-04 20:50:00,59.3,54.5,30.08,WSW,240,0.0,0.0,84,0.00,CLR,,0.00,0.0,WeatherDisplay:10.37,2013-08-05 01:50:00,
2013-08-04 20:55:00,58.9,54.4,30.08,WSW,240,0.0,0.0,85,0.00,CLR,,0.00,0.0,WeatherDisplay:10.37,2013-08-05 01:55:00,
2013-08-04 21:00:00,60.1,55.2,30.08,WSW,240,0.0,0.0,84,0.00,CLR,,0.00,0.0,WeatherDisplay:10.37,2013-08-05 02:00:00,
2013-08-04 21:05:00,60.1,55.2,30.08,WSW,240,0.0,0.0,84,0.00,CLR,,0.00,0.0,WeatherDisplay:10.37,2013-08-05 02:05:00,
2013-08-04 21:10:00,57.7,53.5,30.08,WSW,240,0.0,0.0,86,0.00,CLR,,0.00,0.0,WeatherDisplay:10.37,2013-08-05 02:10:00,
2013-08-04 21:15:00,57.5,53.7,30.08,WSW,240,0.0,0.0,87,0.00,CLR,,0.00,0.0,WeatherDisplay:10.37,2013-08-05 02:15:00,
2013-08-04 21:20:00,56.9,53.4,30.08,WSW,240,0.0,0.0,88,0.00,CLR,,0.00,0.0,WeatherDisplay:10.37,2013-08-05 02:20:00,
2013-08-04 21:25:00,56.5,53.0,30.08,WSW,240,0.0,0.0,88,0.00,CLR,,0.00,0.0,WeatherDisplay:10.37,2013-08-05 02:25:00,
2013-08-04 21:30:00,57.5,53.7,30.08,WSW,240,0.0,0.0,87,0.00,CLR,,0.00,0.0,WeatherDisplay:10.37,2013-08-05 02:30:00,
2013-08-04 21:35:00,55.9,52.7,30.08,WSW,240,0.0,0.0,89,0.00,CLR,,0.00,0.0,WeatherDisplay:10.37,2013-08-05 02:35:00,
2013-08-04 21:40:00,57.5,53.7,30.08,WSW,240,0.0,0.0,87,0.00,CLR,,0.00,0.0,WeatherDisplay:10.37,2013-08-05 02:40:00,
2013-08-04 21:45:00,55.3,52.4,30.07,WSW,240,0.0,0.0,90,0.00,CLR,,0.00,0.0,WeatherDisplay:10.37,2013-08-05 02:45:00,
2013-08-04 21:50:00,55.0,52.1,30.08,WSW,240,0.0,0.0,90,0.00,CLR,,0.00,0.0,WeatherDisplay:10.37,2013-08-05 02:50:00,
2013-08-04 21:55:00,54.8,51.9,30.08,WSW,240,0.0,0.0,90,0.00,CLR,,0.00,0.0,WeatherDisplay:10.37,2013-08-05 02:55:00,
2013-08-04 22:00:00,55.5,52.3,30.08,WSW,240,0.0,0.0,89,0.00,CLR,,0.00,0.0,WeatherDisplay:10.37,2013-08-05 03:00:00,
2013-08-04 22:05:00,54.4,51.8,30.08,WSW,240,0.0,0.0,91,0.00,CLR,,0.00,0.0,WeatherDisplay:10.37,2013-08-05 03:05:00,
2013-08-04 22:10:00,54.2,51.6,30.07,WSW,240,0.0,0.0,91,0.00,CLR,,0.00,0.0,WeatherDisplay:10.37,2013-08-05 03:10:00,
2013-08-04 22:15:00,54.1,51.5,30.07,WSW,240,0.0,0.0,91,0.00,CLR,,0.00,0.0,WeatherDisplay:10.37,2013-08-05 03:15:00,
2013-08-04 22:20:00,53.9,51.3,30.07,WSW,240,0.0,0.0,91,0.00,CLR,,0.00,0.0,WeatherDisplay:10.37,2013-08-05 03:20:00,
2013-08-04 22:25:00,53.9,51.3,30.07,WSW,240,0.0,0.0,91,0.00,CLR,,0.00,0.0,WeatherDisplay:10.37,2013-08-05 03:25:00,
2013-08-04 22:30:00,53.5,50.9,30.07,WSW,240,0.0,0.0,91,0.00,CLR,,0.00,0.0,WeatherDisplay:10.37,2013-08-05 03:30:00,
2013-08-04 22:35:00,53.3,51.0,30.07,WSW,240,0.0,0.0,92,0.00,CLR,,0.00,0.0,WeatherDisplay:10.37,2013-08-05 03:35:00,
2013-08-04 22:40:00,53.4,51.1,30.07,WSW,240,0.0,0.0,92,0.00,CLR,,0.00,0.0,WeatherDisplay:10.37,2013-08-05 03:40:00,
2013-08-04 22:45:00,53.1,50.8,30.06,WSW,240,0.0,0.0,92,0.00,CLR,,0.00,0.0,WeatherDisplay:10.37,2013-08-05 03:45:00,
2013-08-04 22:50:00,53.0,50.7,30.06,WSW,240,0.0,0.0,92,0.00,CLR,,0.00,0.0,WeatherDisplay:10.37,2013-08-05 03:50:00,
2013-08-04 22:55:00,53.1,50.8,30.06,WSW,240,0.0,0.0,92,0.00,CLR,,0.00,0.0,WeatherDisplay:10.37,2013-08-05 03:55:00,
2013-08-04 23:00:00,52.7,50.4,30.06,WSW,240,0.0,0.0,92,0.00,CLR,,0.00,0.0,WeatherDisplay:10.37,2013-08-05 04:00:00,
2013-08-04 23:01:00,52.7,50.4,30.06,WSW,240,0.0,0.0,92,0.00,CLR,,0.00,0.0,WeatherDisplay:10.37,2013-08-05 04:01:00,
2013-08-04 23:02:00,52.7,50.4,30.06,WSW,240,0.0,0.0,92,0.00,CLR,,0.00,0.0,WeatherDisplay:10.37,2013-08-05 04:02:00,
2013-08-04 23:07:00,52.7,50.4,30.06,WSW,240,0.0,0.0,92,0.00,CLR,,0.00,0.0,WeatherDisplay:10.37,2013-08-05 04:07:00,
2013-08-04 23:12:00,52.2,49.9,30.07,WSW,240,0.0,0.0,92,0.00,CLR,,0.00,0.0,WeatherDisplay:10.37,2013-08-05 04:12:00,
2013-08-04 23:17:00,52.7,50.4,30.06,WSW,240,0.0,0.0,92,0.00,CLR,,0.00,0.0,WeatherDisplay:10.37,2013-08-05 04:17:00,
2013-08-04 23:22:00,51.9,49.6,30.07,WSW,240,0.0,0.0,92,0.00,CLR,,0.00,0.0,WeatherDisplay:10.37,2013-08-05 04:22:00,
2013-08-04 23:27:00,52.0,49.7,30.07,WSW,240,0.0,0.0,92,0.00,CLR,,0.00,0.0,WeatherDisplay:10.37,2013-08-05 04:27:00,
2013-08-04 23:32:00,51.7,49.7,30.07,WSW,240,0.0,0.0,93,0.00,CLR,,0.00,0.0,WeatherDisplay:10.37,2013-08-05 04:32:00,
2013-08-04 23:37:00,51.6,49.4,30.07,WSW,240,0.0,0.0,92,0.00,CLR,,0.00,0.0,WeatherDisplay:10.37,2013-08-05 04:37:00,
2013-08-04 23:42:00,51.5,49.3,30.07,WSW,240,0.0,0.0,92,0.00,CLR,,0.00,0.0,WeatherDisplay:10.37,2013-08-05 04:42:00,
2013-08-04 23:47:00,51.5,49.3,30.07,WSW,240,0.0,0.0,92,0.00,CLR,,0.00,0.0,WeatherDisplay:10.37,2013-08-05 04:47:00,
2013-08-04 23:52:00,51.2,49.2,30.06,WSW,240,0.0,0.0,93,0.00,CLR,,0.00,0.0,WeatherDisplay:10.37,2013-08-05 04:52:00,
2013-08-04 23:57:00,51.0,49.0,30.06,WSW,240,0.0,0.0,93,0.00,CLR,,0.00,0.0,WeatherDisplay:10.37,2013-08-05 04:57:00,